createdAt,value
2023-02-05T00:01:05.310Z,0.93
2023-02-05T00:04:20.693Z,1.10
2023-02-05T00:07:26.003Z,0.90
2023-02-05T00:10:34.705Z,0.73
2023-02-05T00:13:41.376Z,1.20
2023-02-05T00:16:47.152Z,0.70
2023-02-05T00:19:53.888Z,0.90
2023-02-05T00:22:59.710Z,1.15
2023-02-05T00:26:10.080Z,1.27
2023-02-05T00:29:17.731Z,1.02
2023-02-05T00:32:26.549Z,1.08
2023-02-05T00:35:32.617Z,0.90
2023-02-05T00:38:38.659Z,0.75
2023-02-05T00:41:48.672Z,1.00
2023-02-05T00:44:55.665Z,0.88
2023-02-05T00:48:03.738Z,1.00
2023-02-05T00:51:10.730Z,0.98
2023-02-05T00:54:23.806Z,0.95
2023-02-05T00:57:32.049Z,0.93
2023-02-05T01:00:41.764Z,1.00
2023-02-05T01:03:48.453Z,1.40
2023-02-05T01:06:54.387Z,1.08
2023-02-05T01:10:04.451Z,0.90
2023-02-05T01:13:17.539Z,1.10
2023-02-05T01:16:27.336Z,1.33
2023-02-05T01:19:33.432Z,1.10
2023-02-05T01:22:39.474Z,1.40
2023-02-05T01:25:48.284Z,1.42
2023-02-05T01:28:57.456Z,1.30
2023-02-05T01:32:04.488Z,1.42
2023-02-05T01:35:12.327Z,1.55
2023-02-05T01:38:19.812Z,1.27
2023-02-05T01:41:25.200Z,1.40
2023-02-05T01:44:37.748Z,1.23
2023-02-05T01:47:48.212Z,1.30
2023-02-05T01:50:57.124Z,1.30
2023-02-05T01:54:02.707Z,0.82
2023-02-05T01:57:10.157Z,1.45
2023-02-05T02:00:21.798Z,2.08
2023-02-05T02:03:29.662Z,1.30
2023-02-05T02:06:36.552Z,1.20
2023-02-05T02:09:43.221Z,1.48
2023-02-05T02:12:51.218Z,1.48
2023-02-05T02:16:00.254Z,1.20
2023-02-05T02:19:07.667Z,1.20
2023-02-05T02:22:28.431Z,1.17
2023-02-05T02:25:51.405Z,1.27
2023-02-05T02:29:02.950Z,1.23
2023-02-05T02:32:13.067Z,1.38
2023-02-05T02:35:22.146Z,1.50
2023-02-05T02:38:30.344Z,1.65
2023-02-05T02:41:40.925Z,1.35
2023-02-05T02:44:51.944Z,1.20
2023-02-05T02:47:59.189Z,1.60
2023-02-05T02:51:06.193Z,1.33
2023-02-05T02:54:19.595Z,1.42
2023-02-05T02:57:30.424Z,1.30
2023-02-05T03:00:41.702Z,1.25
2023-02-05T03:03:49.569Z,1.35
2023-02-05T03:06:57.650Z,1.33
2023-02-05T03:10:06.874Z,1.30
2023-02-05T03:13:13.327Z,1.30
2023-02-05T03:16:26.932Z,1.50
2023-02-05T03:19:33.172Z,1.38
2023-02-05T03:22:40.675Z,1.23
2023-02-05T03:25:51.671Z,1.17
2023-02-05T03:28:57.704Z,1.30
2023-02-05T03:32:12.624Z,1.20
2023-02-05T03:35:26.231Z,2.28
2023-02-05T03:38:36.161Z,2.08
2023-02-05T03:42:03.216Z,2.70
2023-02-05T03:45:19.434Z,2.55
2023-02-05T03:48:32.627Z,3.42
2023-02-05T03:51:42.907Z,3.92
2023-02-05T03:54:51.800Z,5.88
2023-02-05T03:58:01.864Z,4.82
2023-02-05T04:01:11.082Z,4.00
2023-02-05T04:04:20.301Z,2.15
2023-02-05T04:07:25.421Z,1.92
2023-02-05T04:10:31.407Z,1.95
2023-02-05T04:13:38.926Z,2.05
2023-02-05T04:16:46.079Z,1.67
2023-02-05T04:19:55.677Z,2.30
2023-02-05T04:23:06.402Z,1.90
2023-02-05T04:26:11.914Z,1.40
2023-02-05T04:29:19.848Z,1.30
2023-02-05T04:32:29.828Z,1.30
2023-02-05T04:35:38.429Z,1.92
2023-02-05T04:38:43.783Z,1.80
2023-02-05T04:41:49.512Z,1.50
2023-02-05T04:44:54.934Z,1.65
2023-02-05T04:48:02.417Z,1.35
2023-02-05T04:51:14.416Z,1.50
2023-02-05T04:54:23.390Z,1.40
2023-02-05T04:57:30.088Z,1.42
2023-02-05T05:00:52.930Z,1.33
2023-02-05T05:03:58.355Z,1.40
2023-02-05T05:07:06.935Z,1.40
2023-02-05T05:10:12.614Z,1.25
2023-02-05T05:13:19.657Z,1.80
2023-02-05T05:16:27.304Z,1.52
2023-02-05T05:19:34.182Z,1.30
2023-02-05T05:22:42.634Z,1.52
2023-02-05T05:25:50.690Z,1.38
2023-02-05T05:28:58.508Z,1.50
2023-02-05T05:32:04.551Z,1.40
2023-02-05T05:35:10.164Z,1.58
2023-02-05T05:38:18.423Z,1.50
2023-02-05T05:41:37.290Z,1.30
2023-02-05T05:44:43.447Z,1.30
2023-02-05T05:47:48.857Z,1.10
2023-02-05T05:50:58.546Z,1.30
2023-02-05T05:54:06.684Z,1.40
2023-02-05T05:57:12.137Z,1.45
2023-02-05T06:00:18.199Z,1.70
2023-02-05T06:03:24.302Z,1.25
2023-02-05T06:06:29.405Z,1.30
2023-02-05T06:09:42.872Z,1.73
2023-02-05T06:12:50.569Z,1.55
2023-02-05T06:15:57.960Z,1.35
2023-02-05T06:19:05.202Z,1.30
2023-02-05T06:22:13.337Z,1.75
2023-02-05T06:25:25.478Z,1.50
2023-02-05T06:28:30.979Z,1.80
2023-02-05T06:31:40.743Z,1.52
2023-02-05T06:34:47.676Z,1.45
2023-02-05T06:37:53.344Z,1.30
2023-02-05T06:41:03.762Z,1.70
2023-02-05T06:44:08.909Z,1.48
2023-02-05T06:47:14.572Z,1.13
2023-02-05T06:50:20.229Z,1.85
2023-02-05T06:53:28.096Z,1.23
2023-02-05T06:56:36.620Z,1.30
2023-02-05T06:59:43.804Z,1.48
2023-02-05T07:02:49.378Z,1.40
2023-02-05T07:05:58.675Z,1.75
2023-02-05T07:09:05.677Z,1.88
2023-02-05T07:12:14.799Z,1.45
2023-02-05T07:15:19.781Z,1.73
2023-02-05T07:18:26.457Z,1.80
2023-02-05T07:21:33.901Z,1.92
2023-02-05T07:24:41.731Z,1.65
2023-02-05T07:27:51.453Z,1.75
2023-02-05T07:31:01.062Z,1.45
2023-02-05T07:34:09.927Z,2.17
2023-02-05T07:37:15.807Z,2.03
2023-02-05T07:40:22.943Z,2.00
2023-02-05T07:43:33.465Z,1.90
2023-02-05T07:46:41.091Z,2.08
2023-02-05T07:49:47.230Z,2.42
2023-02-05T07:52:54.325Z,2.58
2023-02-05T07:55:59.705Z,2.80
2023-02-05T07:59:10.319Z,2.22
2023-02-05T08:02:19.435Z,1.92
2023-02-05T08:05:24.663Z,2.20
2023-02-05T08:08:31.445Z,2.83
2023-02-05T08:11:37.965Z,2.30
2023-02-05T08:14:46.671Z,2.75
2023-02-05T08:17:51.785Z,2.42
2023-02-05T08:20:57.737Z,2.17
2023-02-05T08:24:04.952Z,2.50
2023-02-05T08:27:10.548Z,2.28
2023-02-05T08:30:21.988Z,1.88
2023-02-05T08:33:29.405Z,1.88
2023-02-05T08:36:35.828Z,1.88
2023-02-05T08:39:41.700Z,2.22
2023-02-05T08:42:47.651Z,1.75
2023-02-05T08:45:57.302Z,2.40
2023-02-05T08:49:02.630Z,1.70
2023-02-05T08:52:08.208Z,2.50
2023-02-05T08:55:13.085Z,2.58
2023-02-05T08:58:22.545Z,1.95
2023-02-05T09:01:30.384Z,2.15
2023-02-05T09:04:35.782Z,2.20
2023-02-05T09:07:42.671Z,2.60
2023-02-05T09:10:48.423Z,2.22
2023-02-05T13:02:45.489Z,1.60
2023-02-05T13:13:18.668Z,1.20
2023-02-05T13:16:25.354Z,1.30
2023-02-05T13:19:36.121Z,1.45
2023-02-05T13:23:04.489Z,1.63
2023-02-05T13:26:22.868Z,1.15
2023-02-05T13:29:32.258Z,1.02
2023-02-05T13:32:38.681Z,1.17
2023-02-05T13:36:06.240Z,1.42
2023-02-05T13:39:24.363Z,1.20
2023-02-05T13:43:01.025Z,1.25
2023-02-05T13:46:22.777Z,0.77
2023-02-05T13:49:45.852Z,1.52
2023-02-05T13:53:06.296Z,1.23
2023-02-05T13:56:31.754Z,0.75
2023-02-05T13:59:38.618Z,1.00
2023-02-05T14:02:46.646Z,0.95
2023-02-05T14:05:52.312Z,0.93
2023-02-05T14:09:03.371Z,1.20
2023-02-05T14:12:14.145Z,1.15
2023-02-05T14:15:37.973Z,1.50
2023-02-05T14:18:54.663Z,1.13
2023-02-05T14:22:05.636Z,1.45
2023-02-05T14:25:25.598Z,1.20
2023-02-05T14:28:42.522Z,1.90
2023-02-05T14:31:49.700Z,2.30
2023-02-05T14:35:02.704Z,1.70
2023-02-05T14:38:21.215Z,1.48
2023-02-05T14:41:33.552Z,1.75
2023-02-05T14:44:46.262Z,1.95
2023-02-05T14:47:51.636Z,1.40
2023-02-05T14:51:07.328Z,1.85
2023-02-05T14:54:22.112Z,1.67
2023-02-05T14:57:29.217Z,1.40
2023-02-05T15:00:40.997Z,1.75
2023-02-05T15:03:48.908Z,1.80
2023-02-05T15:06:56.653Z,1.80
2023-02-05T15:10:03.833Z,1.98
2023-02-05T15:13:13.784Z,1.92
2023-02-05T15:16:38.558Z,1.90
2023-02-05T15:19:48.862Z,1.70
2023-02-05T15:22:57.530Z,1.83
2023-02-05T15:26:05.324Z,2.28
2023-02-05T15:29:15.480Z,1.55
2023-02-05T15:32:22.222Z,2.15
2023-02-05T15:35:32.115Z,1.63
2023-02-05T15:38:43.220Z,1.70
2023-02-05T15:41:48.942Z,1.85
2023-02-05T15:44:56.908Z,2.05
2023-02-05T15:48:04.004Z,2.28
2023-02-05T15:51:17.343Z,2.10
2023-02-05T15:54:24.594Z,1.80
2023-02-05T15:57:34.435Z,2.03
2023-02-05T16:00:41.420Z,2.50
2023-02-05T16:03:48.527Z,1.67
2023-02-05T16:06:59.456Z,2.20
2023-02-05T16:10:05.775Z,2.53
2023-02-05T16:13:17.349Z,2.92
2023-02-05T16:16:25.865Z,2.30
2023-02-05T16:19:32.938Z,2.42
2023-02-05T16:22:44.028Z,2.28
2023-02-05T16:25:50.310Z,2.22
2023-02-05T16:29:02.639Z,1.75
2023-02-05T16:32:09.012Z,2.20
2023-02-05T16:35:19.619Z,2.40
2023-02-05T16:38:28.756Z,2.15
2023-02-05T16:41:38.375Z,2.40
2023-02-05T16:44:45.399Z,3.03
2023-02-05T16:48:05.462Z,2.72
2023-02-05T16:51:31.728Z,3.05
2023-02-05T16:54:42.515Z,3.55
2023-02-05T16:57:48.495Z,3.67
2023-02-05T17:00:59.568Z,4.18
2023-02-05T17:04:04.456Z,5.55
2023-02-05T17:07:20.488Z,4.85
2023-02-05T17:10:28.564Z,4.03
2023-02-05T17:13:41.771Z,4.43
2023-02-05T17:16:56.458Z,4.45
2023-02-05T17:20:07.470Z,5.03
2023-02-05T17:23:12.997Z,5.20
2023-02-05T17:26:21.675Z,5.57
2023-02-05T17:29:28.274Z,4.88
2023-02-05T17:32:35.137Z,4.15
2023-02-05T17:35:40.315Z,4.32
2023-02-05T17:38:45.693Z,4.10
2023-02-05T17:42:08.708Z,3.75
2023-02-05T17:45:17.058Z,3.42
2023-02-05T17:48:22.288Z,4.22
2023-02-05T17:51:27.958Z,3.72
2023-02-05T17:54:35.563Z,4.35
2023-02-05T17:57:44.718Z,4.82
2023-02-05T18:00:51.583Z,4.82
2023-02-05T18:03:56.914Z,4.57
2023-02-05T18:07:01.859Z,4.72
2023-02-05T18:10:08.603Z,4.65
2023-02-05T18:13:19.746Z,5.53
2023-02-05T18:16:25.404Z,5.72
2023-02-05T18:19:30.594Z,6.25
2023-02-05T18:22:35.760Z,4.75
2023-02-05T18:25:41.388Z,5.10
2023-02-05T18:28:50.078Z,6.00
2023-02-05T18:31:56.296Z,6.05
2023-02-05T18:35:02.815Z,5.18
2023-02-05T18:38:07.882Z,5.35
2023-02-05T18:41:14.560Z,5.32
2023-02-05T18:44:22.991Z,7.28
2023-02-05T18:47:28.143Z,6.60
2023-02-05T18:50:33.039Z,5.70
2023-02-05T18:53:39.315Z,5.90
2023-02-05T18:56:44.118Z,6.28
2023-02-05T18:59:51.937Z,5.60
2023-02-05T19:02:57.622Z,5.45
2023-02-05T19:06:05.770Z,4.68
2023-02-05T19:09:12.110Z,5.03
2023-02-05T19:12:19.074Z,5.93
2023-02-05T19:15:26.474Z,4.85
2023-02-05T19:18:31.990Z,6.20
2023-02-05T19:21:37.112Z,5.82
2023-02-05T19:24:43.478Z,6.07
2023-02-05T19:27:48.283Z,4.07
2023-02-05T19:30:57.729Z,6.45
2023-02-05T19:34:03.285Z,6.90
2023-02-05T19:37:11.786Z,6.68
2023-02-05T19:40:18.306Z,6.97
2023-02-05T19:43:23.519Z,6.65
2023-02-05T19:46:35.152Z,6.97
2023-02-05T19:49:40.461Z,5.50
2023-02-05T19:52:45.703Z,6.95
2023-02-05T19:55:51.269Z,6.65
2023-02-05T19:58:57.258Z,6.35
2023-02-05T20:02:05.058Z,5.72
2023-02-05T20:05:12.401Z,6.72
2023-02-05T20:08:17.667Z,7.13
2023-02-05T20:11:24.084Z,7.45
2023-02-05T20:14:29.589Z,6.47
2023-02-05T20:17:43.871Z,6.85
2023-02-05T20:20:49.205Z,7.85
2023-02-05T20:23:54.080Z,6.80
2023-02-05T20:26:59.324Z,7.43
2023-02-05T20:30:16.493Z,7.38
2023-02-05T20:33:24.381Z,7.15
2023-02-05T20:36:30.466Z,8.10
2023-02-05T20:39:39.805Z,8.10
2023-02-05T20:42:45.921Z,6.50
2023-02-05T20:45:51.041Z,7.07
2023-02-05T20:48:58.692Z,7.22
2023-02-05T20:52:03.891Z,7.20
2023-02-05T20:55:09.453Z,7.60
2023-02-05T20:58:17.802Z,8.80
2023-02-05T21:01:23.930Z,8.07
2023-02-05T21:04:33.000Z,7.85
2023-02-05T21:07:39.100Z,8.65
2023-02-05T21:10:45.701Z,7.50
2023-02-05T21:13:54.964Z,7.65
2023-02-05T21:17:00.141Z,7.78
2023-02-05T21:20:07.677Z,7.20
2023-02-05T21:23:12.787Z,7.38
2023-02-05T21:26:21.760Z,7.13
2023-02-05T21:29:26.893Z,6.93
2023-02-05T21:32:33.216Z,7.95
2023-02-05T21:35:43.778Z,6.40
2023-02-05T21:38:49.999Z,6.32
2023-02-05T21:41:55.541Z,7.65
2023-02-05T21:45:00.286Z,5.88
2023-02-05T21:48:06.794Z,8.15
2023-02-05T21:51:17.117Z,6.78
2023-02-05T21:54:25.789Z,7.18
2023-02-05T21:57:30.730Z,6.55
2023-02-05T22:00:43.242Z,6.53
2023-02-05T22:03:50.877Z,6.13
2023-02-05T22:07:01.049Z,6.28
2023-02-05T22:10:07.541Z,5.22
2023-02-05T22:13:13.677Z,7.45
2023-02-05T22:16:19.395Z,5.57
2023-02-05T22:19:25.975Z,4.88
2023-02-05T22:22:33.317Z,4.45
2023-02-05T22:25:38.794Z,4.70
2023-02-05T22:28:43.655Z,5.35
2023-02-05T22:31:52.024Z,6.50
2023-02-05T22:34:56.988Z,5.07
2023-02-05T22:38:06.215Z,5.20
2023-02-05T22:41:12.552Z,4.43
2023-02-05T22:44:17.775Z,6.40
2023-02-05T22:47:22.526Z,6.18
2023-02-05T22:50:29.039Z,5.45
2023-02-05T22:53:36.988Z,5.78
2023-02-05T22:56:42.354Z,5.88
2023-02-05T22:59:47.161Z,6.07
2023-02-05T23:02:52.283Z,6.45
2023-02-05T23:05:57.136Z,7.32
2023-02-05T23:09:08.659Z,6.82
2023-02-05T23:12:14.759Z,5.07
2023-02-05T23:15:20.140Z,5.72
2023-02-05T23:18:24.967Z,5.88
2023-02-05T23:21:31.219Z,4.75
2023-02-05T23:24:39.975Z,5.72
2023-02-05T23:27:45.308Z,5.45
2023-02-05T23:30:50.234Z,5.72
2023-02-05T23:33:57.188Z,3.67
2023-02-05T23:37:01.947Z,7.22
2023-02-05T23:40:11.789Z,5.18
2023-02-05T23:43:20.363Z,6.10
2023-02-05T23:46:27.939Z,5.95
2023-02-05T23:49:32.732Z,5.13
2023-02-05T23:52:37.857Z,5.18
2023-02-05T23:55:45.855Z,4.82
2023-02-05T23:58:52.406Z,6.35
